createdAt,value
2022-10-20T00:01:10.578Z,17.17
2022-10-20T00:03:44.547Z,17.67
2022-10-20T00:06:12.370Z,18.83
2022-10-20T00:08:41.056Z,16.07
2022-10-20T00:11:10.563Z,16.20
2022-10-20T00:13:38.762Z,16.00
2022-10-20T00:16:07.416Z,16.47
2022-10-20T00:18:35.552Z,17.57
2022-10-20T00:21:08.351Z,15.40
2022-10-20T00:23:36.650Z,19.90
2022-10-20T00:26:10.775Z,16.50
2022-10-20T00:28:38.384Z,19.27
2022-10-20T00:31:06.615Z,15.33
2022-10-20T00:33:34.261Z,18.27
2022-10-20T00:36:07.421Z,20.50
2022-10-20T00:38:35.354Z,17.40
2022-10-20T00:41:03.487Z,22.23
2022-10-20T00:43:54.623Z,17.20
2022-10-20T00:46:32.367Z,18.50
2022-10-20T00:49:13.963Z,15.43
2022-10-20T00:51:41.820Z,24.57
2022-10-20T00:54:17.030Z,19.67
2022-10-20T00:56:47.237Z,17.97
2022-10-20T00:59:18.914Z,18.97
2022-10-20T01:01:46.944Z,15.87
2022-10-20T01:04:14.914Z,15.10
2022-10-20T01:06:42.799Z,15.47
2022-10-20T01:09:10.834Z,19.00
2022-10-20T01:11:59.442Z,16.80
2022-10-20T01:14:46.422Z,18.17
2022-10-20T01:17:14.189Z,19.93
2022-10-20T01:20:05.041Z,18.63
2022-10-20T01:22:56.313Z,17.37
2022-10-20T01:25:53.522Z,17.00
2022-10-20T01:28:27.383Z,19.20
2022-10-20T01:30:59.842Z,17.43
2022-10-20T01:33:44.456Z,15.97
2022-10-20T01:36:22.553Z,18.03
2022-10-20T01:38:59.780Z,20.10
2022-10-20T01:41:34.342Z,15.83
2022-10-20T01:44:09.710Z,18.87
2022-10-20T01:46:39.539Z,16.17
2022-10-20T01:49:08.214Z,18.67
2022-10-20T01:51:35.995Z,21.70
2022-10-20T01:54:04.144Z,17.27
2022-10-20T01:57:05.442Z,20.80
2022-10-20T01:59:56.617Z,20.00
2022-10-20T02:02:24.120Z,17.03
2022-10-20T02:05:13.441Z,23.43
2022-10-20T02:07:42.985Z,19.57
2022-10-20T02:10:19.043Z,21.93
2022-10-20T02:12:52.746Z,19.30
2022-10-20T02:15:24.856Z,24.50
2022-10-20T02:17:57.527Z,30.37
2022-10-20T02:20:25.509Z,29.73
2022-10-20T02:22:53.523Z,32.60
2022-10-20T02:25:22.126Z,22.00
2022-10-20T02:27:52.664Z,21.90
2022-10-20T02:30:21.385Z,23.50
2022-10-20T02:32:52.727Z,25.20
2022-10-20T02:35:27.069Z,23.37
2022-10-20T02:37:54.652Z,20.07
2022-10-20T02:40:22.767Z,26.83
2022-10-20T02:42:50.428Z,19.23
2022-10-20T02:45:18.306Z,19.00
2022-10-20T02:47:45.957Z,22.00
2022-10-20T02:50:13.764Z,23.30
2022-10-20T02:52:41.432Z,21.63
2022-10-20T02:55:09.455Z,28.40
2022-10-20T02:57:37.251Z,26.90
2022-10-20T03:00:06.709Z,23.93
2022-10-20T03:02:34.295Z,20.10
2022-10-20T03:05:02.238Z,22.13
2022-10-20T03:07:29.870Z,22.53
2022-10-20T03:09:57.644Z,16.90
2022-10-20T03:12:28.815Z,21.13
2022-10-20T03:14:59.333Z,16.20
2022-10-20T03:17:26.923Z,18.23
2022-10-20T03:19:54.711Z,20.63
2022-10-20T03:22:22.279Z,17.67
2022-10-20T03:24:50.218Z,17.83
2022-10-20T03:27:17.922Z,19.63
2022-10-20T03:29:45.772Z,21.40
2022-10-20T03:32:13.391Z,21.23
2022-10-20T03:34:41.313Z,18.37
2022-10-20T03:37:09.289Z,19.33
2022-10-20T03:39:37.148Z,21.07
2022-10-20T03:42:04.915Z,26.40
2022-10-20T03:44:32.771Z,25.03
2022-10-20T03:47:00.481Z,23.10
2022-10-20T03:49:28.262Z,22.30
2022-10-20T03:51:55.839Z,17.27
2022-10-20T03:54:23.634Z,18.93
2022-10-20T03:56:51.163Z,19.27
2022-10-20T03:59:18.947Z,21.53
2022-10-20T04:01:46.977Z,20.90
2022-10-20T04:04:14.980Z,20.33
2022-10-20T04:06:42.562Z,17.37
2022-10-20T04:09:10.756Z,21.43
2022-10-20T04:11:38.456Z,19.33
2022-10-20T04:14:06.266Z,17.97
2022-10-20T04:16:33.931Z,19.80
2022-10-20T04:19:02.009Z,18.27
2022-10-20T04:21:30.313Z,19.57
2022-10-20T04:23:58.076Z,17.33
2022-10-20T04:26:25.849Z,19.90
2022-10-20T04:28:53.602Z,19.20
2022-10-20T04:31:21.193Z,14.50
2022-10-20T04:33:49.055Z,16.07
2022-10-20T04:36:16.832Z,21.93
2022-10-20T04:38:44.654Z,16.17
2022-10-20T04:41:12.338Z,18.10
2022-10-20T04:43:40.207Z,24.03
2022-10-20T04:46:08.677Z,28.17
2022-10-20T04:48:37.340Z,30.30
2022-10-20T04:51:07.414Z,28.07
2022-10-20T04:53:35.331Z,23.50
2022-10-20T04:56:03.006Z,20.67
2022-10-20T04:58:30.849Z,25.30
2022-10-20T05:01:02.376Z,23.60
2022-10-20T05:03:30.409Z,30.70
2022-10-20T05:06:12.663Z,31.90
2022-10-20T05:08:40.875Z,35.80
2022-10-20T05:11:08.821Z,39.00
2022-10-20T05:13:36.646Z,35.80
2022-10-20T05:16:04.710Z,23.60
2022-10-20T05:18:32.756Z,27.40
2022-10-20T05:21:09.452Z,24.47
2022-10-20T05:23:39.222Z,30.13
2022-10-20T05:26:15.259Z,26.37
2022-10-20T05:28:47.761Z,20.17
2022-10-20T05:31:17.130Z,27.20
2022-10-20T05:33:50.337Z,19.27
2022-10-20T05:39:07.890Z,24.67
2022-10-20T05:41:38.729Z,19.33
2022-10-20T05:44:09.108Z,17.77
2022-10-20T05:46:41.650Z,19.90
2022-10-20T05:49:17.606Z,15.60
2022-10-20T05:51:46.733Z,15.27
2022-10-20T05:54:15.075Z,15.57
2022-10-20T05:56:42.751Z,21.27
2022-10-20T05:59:13.156Z,19.20
2022-10-20T06:01:59.595Z,17.57
2022-10-20T06:04:28.477Z,20.23
2022-10-20T06:06:56.702Z,18.73
2022-10-20T06:09:25.088Z,25.80
2022-10-20T06:11:53.329Z,21.90
2022-10-20T06:14:25.972Z,17.63
2022-10-20T06:16:54.077Z,21.57
2022-10-20T06:19:22.369Z,17.67
2022-10-20T06:21:50.301Z,17.37
2022-10-20T06:24:19.201Z,18.50
2022-10-20T06:26:47.075Z,19.37
2022-10-20T06:29:16.825Z,20.80
2022-10-20T06:31:48.665Z,17.67
2022-10-20T06:34:21.028Z,15.23
2022-10-20T06:36:48.983Z,28.03
2022-10-20T06:39:22.445Z,19.17
2022-10-20T06:41:56.920Z,22.23
2022-10-20T06:44:30.563Z,25.07
2022-10-20T06:46:58.239Z,24.63
2022-10-20T06:49:26.181Z,26.40
2022-10-20T06:51:53.841Z,32.57
2022-10-20T06:54:21.810Z,35.93
2022-10-20T06:56:49.710Z,29.93
2022-10-20T06:59:18.273Z,32.03
2022-10-20T07:01:46.128Z,27.67
2022-10-20T07:04:16.998Z,34.00
2022-10-20T07:06:45.617Z,36.93
2022-10-20T07:09:18.935Z,32.43
2022-10-20T07:11:46.916Z,23.83
2022-10-20T07:14:15.185Z,24.67
2022-10-20T07:16:42.828Z,23.37
2022-10-20T07:19:10.739Z,19.40
2022-10-20T07:21:41.532Z,17.03
2022-10-20T07:24:13.823Z,18.70
2022-10-20T07:26:41.955Z,18.83
2022-10-20T07:29:13.886Z,18.80
2022-10-20T07:31:44.991Z,21.57
2022-10-20T07:34:25.241Z,21.80
2022-10-20T07:36:54.102Z,27.57
2022-10-20T07:39:22.320Z,32.87
2022-10-20T07:41:50.924Z,34.80
2022-10-20T07:44:18.903Z,36.53
2022-10-20T07:46:46.612Z,38.33
2022-10-20T07:52:02.495Z,37.13
2022-10-20T07:54:30.521Z,41.23
2022-10-20T07:56:58.367Z,39.43
2022-10-20T07:59:26.523Z,28.67
2022-10-20T08:01:56.196Z,36.37
2022-10-20T08:04:27.073Z,28.10
2022-10-20T08:06:54.797Z,27.57
2022-10-20T08:09:22.691Z,28.67
2022-10-20T08:11:52.872Z,27.83
2022-10-20T08:14:23.375Z,26.57
2022-10-20T08:16:51.090Z,22.53
2022-10-20T08:22:00.579Z,16.40
2022-10-20T08:24:28.350Z,18.33
2022-10-20T08:26:55.952Z,20.73
2022-10-20T08:29:23.709Z,17.17
2022-10-20T08:31:51.597Z,14.17
2022-10-20T08:34:19.421Z,10.47
2022-10-20T08:36:46.919Z,12.83
2022-10-20T08:39:14.677Z,11.27
2022-10-20T08:44:36.328Z,10.13
2022-10-20T08:47:06.094Z,10.97
2022-10-20T08:49:35.180Z,7.87
2022-10-20T08:52:03.320Z,6.23
2022-10-20T08:54:34.634Z,8.47
2022-10-20T08:57:02.296Z,5.23
2022-10-20T08:59:35.525Z,7.33
2022-10-20T09:02:14.646Z,5.23
2022-10-20T09:04:52.821Z,4.80
2022-10-20T09:07:25.218Z,4.57
2022-10-20T09:09:53.643Z,4.87
2022-10-20T09:12:21.760Z,6.07
2022-10-20T09:14:49.546Z,4.73
2022-10-20T09:17:18.597Z,3.93
2022-10-20T09:19:55.077Z,4.50
2022-10-20T09:22:22.919Z,2.50
2022-10-20T09:24:55.293Z,2.60
2022-10-20T09:27:29.858Z,2.27
2022-10-20T09:29:57.644Z,1.23
2022-10-20T09:32:56.321Z,1.37
2022-10-20T09:35:25.879Z,3.30
2022-10-20T09:37:53.834Z,1.80
2022-10-20T09:40:22.813Z,4.40
2022-10-20T09:43:14.829Z,10.87
2022-10-20T09:45:58.918Z,6.03
2022-10-20T09:48:29.425Z,4.70
2022-10-20T09:50:58.857Z,11.00
2022-10-20T09:53:32.069Z,6.10
2022-10-20T09:56:00.179Z,3.63
2022-10-20T09:58:29.140Z,8.20
2022-10-20T10:00:59.215Z,4.63
2022-10-20T10:03:27.056Z,5.00
2022-10-20T10:05:59.459Z,8.70
2022-10-20T10:08:40.720Z,8.20
2022-10-20T10:11:20.238Z,6.35
2022-10-20T10:13:50.196Z,4.30
2022-10-20T10:16:20.799Z,3.97
2022-10-20T10:19:01.850Z,2.95
2022-10-20T10:21:30.968Z,5.63
2022-10-20T10:24:03.592Z,3.58
2022-10-20T10:26:46.075Z,3.28
2022-10-20T10:29:36.520Z,5.05
2022-10-20T10:32:19.451Z,2.75
2022-10-20T10:35:21.602Z,2.20
2022-10-20T10:37:49.215Z,2.63
2022-10-20T10:40:24.360Z,3.25
2022-10-20T10:42:52.200Z,5.72
2022-10-20T10:45:24.666Z,3.47
2022-10-20T10:48:00.580Z,6.50
2022-10-20T10:50:52.646Z,5.95
2022-10-20T10:54:11.615Z,4.70
2022-10-20T10:56:49.727Z,12.20
2022-10-20T10:59:35.203Z,6.10
2022-10-20T11:02:30.667Z,8.13
2022-10-20T11:07:59.198Z,5.90
2022-10-20T11:11:04.252Z,7.35
2022-10-20T11:13:43.036Z,6.70
2022-10-20T11:16:22.361Z,7.75
2022-10-20T11:19:27.149Z,8.48
2022-10-20T11:22:11.888Z,10.50
2022-10-20T11:24:48.079Z,7.43
2022-10-20T11:27:26.438Z,10.77
2022-10-20T11:30:05.648Z,11.27
2022-10-20T11:32:50.420Z,11.18
2022-10-20T11:35:35.886Z,13.75
2022-10-20T11:38:25.423Z,12.23
2022-10-20T11:41:00.406Z,8.65
2022-10-20T11:43:35.456Z,9.40
2022-10-20T11:46:09.266Z,9.52
2022-10-20T11:48:45.230Z,7.85
2022-10-20T11:51:17.833Z,6.75
2022-10-20T11:53:50.652Z,5.53
2022-10-20T11:56:29.568Z,3.15
2022-10-20T11:59:26.185Z,3.00
2022-10-20T12:02:30.909Z,3.50
2022-10-20T12:05:16.068Z,3.83
2022-10-20T12:08:29.622Z,2.17
2022-10-20T12:11:31.681Z,2.42
2022-10-20T12:14:16.988Z,2.25
2022-10-20T12:16:58.427Z,3.00
2022-10-20T12:19:36.284Z,3.15
2022-10-20T12:22:18.676Z,4.35
2022-10-20T12:24:55.066Z,1.85
2022-10-20T12:30:18.900Z,2.08
2022-10-20T12:32:57.584Z,2.58
2022-10-20T12:35:24.897Z,3.70
2022-10-20T12:38:04.362Z,6.63
2022-10-20T12:40:34.835Z,2.55
2022-10-20T12:43:02.124Z,2.00
2022-10-20T12:45:41.859Z,4.15
2022-10-20T12:48:19.248Z,3.08
2022-10-20T12:50:50.531Z,2.47
2022-10-20T12:53:18.027Z,1.95
2022-10-20T12:55:56.118Z,2.38
2022-10-20T12:58:23.610Z,1.00
2022-10-20T13:00:51.138Z,1.38
2022-10-20T13:03:47.838Z,2.20
2022-10-20T13:06:30.230Z,3.90
2022-10-20T13:09:07.758Z,4.10
2022-10-20T13:11:39.190Z,2.17
2022-10-20T13:14:12.988Z,8.65
2022-10-20T13:16:49.862Z,2.17
2022-10-20T13:19:23.977Z,1.75
2022-10-20T13:21:52.352Z,4.05
2022-10-20T13:24:31.336Z,2.80
2022-10-20T13:27:05.717Z,1.92
2022-10-20T13:29:37.392Z,4.50
2022-10-20T13:32:24.480Z,2.38
2022-10-20T13:34:58.985Z,1.95
2022-10-20T13:37:38.226Z,3.28
2022-10-20T13:40:25.786Z,3.40
2022-10-20T13:43:02.411Z,4.25
2022-10-20T13:46:00.820Z,5.18
2022-10-20T13:48:50.106Z,2.67
2022-10-20T13:51:27.996Z,3.92
2022-10-20T13:53:58.866Z,3.55
2022-10-20T13:56:37.820Z,3.50
2022-10-20T13:59:29.680Z,5.22
2022-10-20T14:02:00.491Z,3.83
2022-10-20T14:04:31.023Z,3.95
2022-10-20T14:07:13.433Z,4.40
2022-10-20T14:09:45.380Z,4.45
2022-10-20T14:12:26.789Z,7.85
2022-10-20T14:15:01.688Z,4.03
2022-10-20T14:17:29.845Z,3.60
2022-10-20T14:20:20.623Z,3.65
2022-10-20T14:22:48.727Z,5.20
2022-10-20T14:25:16.983Z,5.45
2022-10-20T14:27:45.371Z,4.25
2022-10-20T14:30:16.808Z,4.45
2022-10-20T14:32:45.884Z,5.03
2022-10-20T14:35:19.033Z,5.18
2022-10-20T14:38:03.457Z,2.63
2022-10-20T14:40:37.006Z,5.85
2022-10-20T14:43:16.347Z,4.78
2022-10-20T14:46:01.876Z,4.53
2022-10-20T14:48:44.027Z,6.43
2022-10-20T14:51:36.341Z,2.87
2022-10-20T14:54:25.285Z,3.67
2022-10-20T14:57:02.142Z,3.97
2022-10-20T14:59:32.418Z,2.30
2022-10-20T15:02:17.074Z,4.27
2022-10-20T15:04:45.728Z,3.10
2022-10-20T15:07:26.621Z,8.97
2022-10-20T15:10:05.129Z,8.17
2022-10-20T15:12:34.198Z,7.70
2022-10-20T15:15:20.609Z,8.93
2022-10-20T15:17:51.315Z,9.97
2022-10-20T15:20:40.540Z,4.60
2022-10-20T15:23:22.651Z,5.10
2022-10-20T15:25:50.573Z,13.70
2022-10-20T15:28:37.051Z,6.77
2022-10-20T15:31:21.506Z,7.53
2022-10-20T15:33:49.689Z,7.23
2022-10-20T15:36:20.964Z,20.67
2022-10-20T15:38:49.915Z,19.50
2022-10-20T15:41:20.587Z,14.57
2022-10-20T15:43:48.386Z,13.27
2022-10-20T15:46:16.636Z,15.80
2022-10-20T15:48:44.956Z,15.10
2022-10-20T15:51:28.314Z,9.33
2022-10-20T15:53:56.824Z,5.60
2022-10-20T15:56:24.541Z,10.83
2022-10-20T15:58:52.995Z,9.30
2022-10-20T16:01:21.872Z,28.37
2022-10-20T16:03:50.254Z,20.73
2022-10-20T16:06:18.912Z,19.87
2022-10-20T16:08:48.330Z,13.17
2022-10-20T16:11:17.682Z,13.63
2022-10-20T16:13:45.729Z,16.33
2022-10-20T16:16:15.641Z,8.60
2022-10-20T16:18:43.503Z,12.40
2022-10-20T16:21:11.686Z,7.17
2022-10-20T16:23:42.345Z,10.97
2022-10-20T16:26:13.322Z,9.40
2022-10-20T16:28:41.311Z,8.50
2022-10-20T16:31:12.406Z,8.43
2022-10-20T16:33:40.555Z,12.73
2022-10-20T16:36:10.545Z,11.57
2022-10-20T16:38:40.265Z,6.83
2022-10-20T16:41:14.336Z,6.63
2022-10-20T16:43:44.727Z,7.67
2022-10-20T16:46:13.665Z,7.60
2022-10-20T16:48:43.939Z,5.80
2022-10-20T16:51:15.351Z,8.43
2022-10-20T16:53:43.709Z,13.47
2022-10-20T16:56:15.171Z,51.47
2022-10-20T16:58:46.927Z,74.10
2022-10-20T17:01:17.437Z,34.10
2022-10-20T17:03:47.088Z,25.23
2022-10-20T17:06:16.900Z,13.30
2022-10-20T17:08:45.361Z,9.83
2022-10-20T17:11:16.224Z,33.67
2022-10-20T17:13:44.511Z,53.43
2022-10-20T17:16:15.101Z,32.93
2022-10-20T17:18:43.144Z,35.97
2022-10-20T17:21:11.470Z,16.57
2022-10-20T17:23:42.757Z,8.77
2022-10-20T17:26:19.946Z,11.17
2022-10-20T17:28:49.133Z,10.37
2022-10-20T17:31:18.634Z,14.67
2022-10-20T17:33:47.340Z,18.23
2022-10-20T17:36:15.329Z,22.83
2022-10-20T17:38:43.538Z,17.63
2022-10-20T17:41:14.237Z,13.63
2022-10-20T17:43:42.866Z,17.37
2022-10-20T17:46:15.393Z,12.87
2022-10-20T17:48:43.342Z,21.87
2022-10-20T17:51:23.311Z,13.47
2022-10-20T17:53:53.385Z,11.87
2022-10-20T17:56:24.270Z,25.97
2022-10-20T17:58:52.933Z,18.67
2022-10-20T18:01:30.695Z,28.77
2022-10-20T18:04:04.884Z,30.30
2022-10-20T18:06:34.729Z,17.13
2022-10-20T18:09:06.618Z,14.50
2022-10-20T18:11:35.698Z,15.13
2022-10-20T18:14:04.822Z,14.57
2022-10-20T18:16:34.372Z,22.83
2022-10-20T18:19:02.872Z,36.47
2022-10-20T18:21:32.282Z,88.93
2022-10-20T18:24:02.984Z,106.33
2022-10-20T18:26:32.447Z,63.10
2022-10-20T18:29:01.976Z,59.47
2022-10-20T18:31:32.589Z,56.20
2022-10-20T18:34:08.201Z,57.77
2022-10-20T18:36:40.508Z,44.93
2022-10-20T18:39:12.038Z,46.60
2022-10-20T18:41:43.263Z,45.93
2022-10-20T18:44:16.804Z,51.10
2022-10-20T18:46:46.293Z,69.93
2022-10-20T18:49:16.889Z,66.00
2022-10-20T18:51:47.423Z,63.33
2022-10-20T18:54:16.984Z,63.53
2022-10-20T18:56:46.957Z,63.67
2022-10-20T18:59:17.351Z,59.10
2022-10-20T19:01:46.414Z,61.77
2022-10-20T19:04:16.429Z,47.77
2022-10-20T19:06:47.294Z,54.17
2022-10-20T19:09:21.824Z,69.87
2022-10-20T19:14:24.729Z,78.90
2022-10-20T19:16:53.806Z,74.77
2022-10-20T19:19:23.087Z,85.63
2022-10-20T19:21:51.837Z,78.63
2022-10-20T19:24:22.120Z,83.77
2022-10-20T19:26:57.380Z,96.50
2022-10-20T19:29:31.457Z,94.53
2022-10-20T19:32:02.298Z,87.90
2022-10-20T19:34:39.405Z,102.27
2022-10-20T19:37:08.309Z,282.43
2022-10-20T19:39:40.059Z,107.93
2022-10-20T19:42:09.344Z,97.00
2022-10-20T19:44:37.534Z,84.23
2022-10-20T19:47:05.706Z,84.73
2022-10-20T19:49:34.190Z,79.47
2022-10-20T19:52:04.215Z,58.30
2022-10-20T19:54:33.802Z,50.70
2022-10-20T19:57:02.178Z,61.20
2022-10-20T19:59:30.331Z,86.90
2022-10-20T20:01:58.405Z,78.17
2022-10-20T20:04:27.054Z,64.43
2022-10-20T20:06:59.638Z,58.00
2022-10-20T20:09:30.256Z,59.70
2022-10-20T20:11:58.491Z,56.80
2022-10-20T20:14:26.831Z,58.63
2022-10-20T20:16:55.142Z,59.13
2022-10-20T20:19:23.623Z,72.00
2022-10-20T20:21:51.745Z,57.80
2022-10-20T20:24:20.169Z,79.33
2022-10-20T20:26:48.202Z,79.13
2022-10-20T20:29:16.943Z,70.00
2022-10-20T20:31:45.351Z,63.93
2022-10-20T20:34:13.512Z,62.93
2022-10-20T20:36:42.849Z,65.03
2022-10-20T20:39:14.729Z,70.93
2022-10-20T20:41:42.906Z,96.10
2022-10-20T20:44:11.232Z,121.47
2022-10-20T20:46:39.180Z,303.50
2022-10-20T20:49:07.101Z,201.63
2022-10-20T20:51:34.783Z,146.43
2022-10-20T20:54:03.862Z,161.57
2022-10-20T20:56:31.822Z,135.33
2022-10-20T20:58:59.831Z,187.20
2022-10-20T21:01:31.365Z,599.87
2022-10-20T21:04:03.561Z,429.03
2022-10-20T21:06:49.550Z,512.53
2022-10-20T21:09:20.259Z,421.70
2022-10-20T21:11:49.284Z,499.83
2022-10-20T21:14:17.575Z,453.67
2022-10-20T21:16:45.600Z,393.23
2022-10-20T21:19:14.105Z,322.27
2022-10-20T21:21:44.582Z,424.93
2022-10-20T21:24:13.038Z,638.17
2022-10-20T21:26:41.181Z,536.57
2022-10-20T21:29:08.963Z,531.50
2022-10-20T21:31:36.750Z,445.23
2022-10-20T21:34:05.837Z,258.17
2022-10-20T21:36:35.457Z,93.33
2022-10-20T21:39:05.940Z,81.43
2022-10-20T21:41:35.929Z,92.90
2022-10-20T21:44:05.404Z,75.20
2022-10-20T21:46:39.253Z,77.23
2022-10-20T21:49:10.044Z,84.40
2022-10-20T21:51:39.864Z,76.63
2022-10-20T21:54:12.445Z,73.70
2022-10-20T21:56:41.582Z,71.40
2022-10-20T21:59:18.867Z,80.67
2022-10-20T22:01:47.773Z,75.13
2022-10-20T22:04:16.536Z,72.70
2022-10-20T22:06:44.305Z,82.07
2022-10-20T22:09:13.254Z,88.93
2022-10-20T22:11:49.027Z,83.00
2022-10-20T22:14:16.818Z,89.80
2022-10-20T22:16:44.615Z,88.47
2022-10-20T22:19:18.421Z,92.70
2022-10-20T22:21:48.509Z,88.90
2022-10-20T22:24:17.677Z,89.73
2022-10-20T22:26:45.843Z,95.77
2022-10-20T22:29:13.982Z,84.23
2022-10-20T22:31:41.994Z,84.47
2022-10-20T22:34:10.142Z,82.80
2022-10-20T22:36:37.988Z,74.60
2022-10-20T22:39:06.689Z,72.10
2022-10-20T22:41:34.454Z,72.00
2022-10-20T22:44:02.415Z,75.77
2022-10-20T22:46:30.173Z,92.97
2022-10-20T22:51:25.766Z,88.03
2022-10-20T22:53:53.475Z,93.90
2022-10-20T22:56:22.355Z,78.33
2022-10-20T22:58:52.504Z,91.13
2022-10-20T23:01:22.620Z,81.83
2022-10-20T23:03:50.845Z,79.57
2022-10-20T23:06:21.073Z,84.67
2022-10-20T23:08:51.579Z,101.10
2022-10-20T23:11:19.587Z,128.60
2022-10-20T23:13:47.919Z,119.30
2022-10-20T23:16:15.659Z,104.57
2022-10-20T23:18:43.963Z,101.47
2022-10-20T23:21:12.973Z,96.63
2022-10-20T23:23:41.170Z,87.50
2022-10-20T23:26:09.220Z,88.67
2022-10-20T23:28:37.801Z,77.83
2022-10-20T23:31:14.044Z,67.67
2022-10-20T23:33:42.633Z,82.23
2022-10-20T23:36:10.282Z,75.63
2022-10-20T23:38:38.145Z,83.00
2022-10-20T23:41:05.795Z,77.70
2022-10-20T23:43:33.953Z,75.50
2022-10-20T23:46:01.463Z,79.90
2022-10-20T23:48:29.518Z,91.70
2022-10-20T23:50:57.096Z,81.40
2022-10-20T23:53:25.419Z,74.40
2022-10-20T23:55:53.327Z,78.87
2022-10-20T23:58:22.760Z,76.53
